sensor_id;sensor_type;location;lat;lon;timestamp;P1;durP1;ratioP1;P2;durP2;ratioP2
9447;SDS011;4762;48.128;11.376;2023-01-23T00:00:34;7.93;;;3.63;;
9447;SDS011;4762;48.128;11.376;2023-01-23T00:02:35;5.63;;;3.53;;
9447;SDS011;4762;48.128;11.376;2023-01-23T00:04:38;3.77;;;3.33;;
9447;SDS011;4762;48.128;11.376;2023-01-23T00:06:40;4.77;;;3.40;;
9447;SDS011;4762;48.128;11.376;2023-01-23T00:08:43;9.50;;;4.30;;
9447;SDS011;4762;48.128;11.376;2023-01-23T00:10:45;5.73;;;3.43;;
9447;SDS011;4762;48.128;11.376;2023-01-23T00:12:47;3.43;;;3.13;;
9447;SDS011;4762;48.128;11.376;2023-01-23T00:14:50;4.70;;;3.67;;
9447;SDS011;4762;48.128;11.376;2023-01-23T00:16:52;2.90;;;2.60;;
9447;SDS011;4762;48.128;11.376;2023-01-23T00:18:54;6.27;;;3.83;;
9447;SDS011;4762;48.128;11.376;2023-01-23T00:20:57;6.53;;;4.10;;
9447;SDS011;4762;48.128;11.376;2023-01-23T00:22:59;4.83;;;2.70;;
9447;SDS011;4762;48.128;11.376;2023-01-23T00:25:01;8.33;;;4.03;;
9447;SDS011;4762;48.128;11.376;2023-01-23T00:27:03;6.03;;;3.73;;
9447;SDS011;4762;48.128;11.376;2023-01-23T00:29:06;2.80;;;2.37;;
9447;SDS011;4762;48.128;11.376;2023-01-23T00:31:09;6.00;;;3.33;;
9447;SDS011;4762;48.128;11.376;2023-01-23T00:33:10;4.00;;;3.33;;
9447;SDS011;4762;48.128;11.376;2023-01-23T00:35:13;6.70;;;3.67;;
9447;SDS011;4762;48.128;11.376;2023-01-23T00:37:15;5.10;;;3.97;;
9447;SDS011;4762;48.128;11.376;2023-01-23T00:39:18;4.80;;;3.07;;
9447;SDS011;4762;48.128;11.376;2023-01-23T00:41:20;8.30;;;2.60;;
9447;SDS011;4762;48.128;11.376;2023-01-23T00:43:22;5.50;;;3.27;;
9447;SDS011;4762;48.128;11.376;2023-01-23T00:45:25;3.90;;;2.63;;
9447;SDS011;4762;48.128;11.376;2023-01-23T00:47:27;9.23;;;3.93;;
9447;SDS011;4762;48.128;11.376;2023-01-23T00:49:29;6.97;;;3.47;;
9447;SDS011;4762;48.128;11.376;2023-01-23T00:51:31;4.73;;;3.17;;
9447;SDS011;4762;48.128;11.376;2023-01-23T00:53:34;12.20;;;3.70;;
9447;SDS011;4762;48.128;11.376;2023-01-23T00:55:36;4.30;;;3.50;;
9447;SDS011;4762;48.128;11.376;2023-01-23T00:57:38;6.17;;;3.37;;
9447;SDS011;4762;48.128;11.376;2023-01-23T00:59:40;5.40;;;3.63;;
9447;SDS011;4762;48.128;11.376;2023-01-23T01:01:43;6.17;;;3.90;;
9447;SDS011;4762;48.128;11.376;2023-01-23T01:03:45;6.57;;;4.57;;
9447;SDS011;4762;48.128;11.376;2023-01-23T01:05:47;18.10;;;4.67;;
9447;SDS011;4762;48.128;11.376;2023-01-23T01:07:49;5.67;;;3.93;;
9447;SDS011;4762;48.128;11.376;2023-01-23T01:09:52;8.07;;;3.90;;
9447;SDS011;4762;48.128;11.376;2023-01-23T01:11:54;4.37;;;3.57;;
9447;SDS011;4762;48.128;11.376;2023-01-23T01:13:56;7.90;;;4.20;;
9447;SDS011;4762;48.128;11.376;2023-01-23T01:15:59;9.53;;;4.00;;
9447;SDS011;4762;48.128;11.376;2023-01-23T01:18:01;8.33;;;4.50;;
9447;SDS011;4762;48.128;11.376;2023-01-23T01:20:03;3.67;;;3.10;;
9447;SDS011;4762;48.128;11.376;2023-01-23T01:22:06;7.40;;;5.27;;
9447;SDS011;4762;48.128;11.376;2023-01-23T01:24:08;9.80;;;4.63;;
9447;SDS011;4762;48.128;11.376;2023-01-23T01:26:11;4.03;;;3.57;;
9447;SDS011;4762;48.128;11.376;2023-01-23T01:28:13;7.80;;;4.30;;
9447;SDS011;4762;48.128;11.376;2023-01-23T01:30:16;5.50;;;4.40;;
9447;SDS011;4762;48.128;11.376;2023-01-23T01:32:17;4.60;;;3.93;;
9447;SDS011;4762;48.128;11.376;2023-01-23T01:34:20;5.37;;;3.73;;
9447;SDS011;4762;48.128;11.376;2023-01-23T01:36:22;8.97;;;4.63;;
9447;SDS011;4762;48.128;11.376;2023-01-23T01:38:24;7.53;;;4.53;;
9447;SDS011;4762;48.128;11.376;2023-01-23T01:40:28;7.57;;;4.63;;
9447;SDS011;4762;48.128;11.376;2023-01-23T01:42:30;9.20;;;4.33;;
9447;SDS011;4762;48.128;11.376;2023-01-23T01:44:50;16.53;;;5.30;;
9447;SDS011;4762;48.128;11.376;2023-01-23T01:46:41;8.20;;;5.50;;
9447;SDS011;4762;48.128;11.376;2023-01-23T01:48:48;6.10;;;4.50;;
9447;SDS011;4762;48.128;11.376;2023-01-23T01:51:07;7.57;;;3.77;;
9447;SDS011;4762;48.128;11.376;2023-01-23T01:53:12;10.30;;;3.93;;
9447;SDS011;4762;48.128;11.376;2023-01-23T01:55:15;6.80;;;4.50;;
9447;SDS011;4762;48.128;11.376;2023-01-23T01:57:18;9.77;;;4.80;;
9447;SDS011;4762;48.128;11.376;2023-01-23T01:59:24;12.10;;;4.77;;
9447;SDS011;4762;48.128;11.376;2023-01-23T02:01:25;4.97;;;3.43;;
9447;SDS011;4762;48.128;11.376;2023-01-23T02:03:27;11.43;;;5.80;;
9447;SDS011;4762;48.128;11.376;2023-01-23T02:05:31;6.47;;;5.10;;
9447;SDS011;4762;48.128;11.376;2023-01-23T02:07:43;11.37;;;5.57;;
9447;SDS011;4762;48.128;11.376;2023-01-23T02:09:49;8.80;;;3.67;;
9447;SDS011;4762;48.128;11.376;2023-01-23T02:11:51;7.60;;;5.03;;
9447;SDS011;4762;48.128;11.376;2023-01-23T02:13:53;8.50;;;5.53;;
9447;SDS011;4762;48.128;11.376;2023-01-23T02:15:56;11.20;;;4.30;;
9447;SDS011;4762;48.128;11.376;2023-01-23T02:17:58;8.23;;;5.40;;
9447;SDS011;4762;48.128;11.376;2023-01-23T02:24:35;6.63;;;5.00;;
9447;SDS011;4762;48.128;11.376;2023-01-23T02:26:39;5.07;;;4.20;;
9447;SDS011;4762;48.128;11.376;2023-01-23T02:28:41;6.33;;;4.50;;
9447;SDS011;4762;48.128;11.376;2023-01-23T02:30:43;4.83;;;3.67;;
9447;SDS011;4762;48.128;11.376;2023-01-23T02:32:47;8.90;;;5.30;;
9447;SDS011;4762;48.128;11.376;2023-01-23T02:34:50;7.17;;;4.70;;
9447;SDS011;4762;48.128;11.376;2023-01-23T02:36:52;10.83;;;4.27;;
9447;SDS011;4762;48.128;11.376;2023-01-23T02:38:59;6.10;;;4.07;;
9447;SDS011;4762;48.128;11.376;2023-01-23T02:41:00;15.20;;;5.10;;
9447;SDS011;4762;48.128;11.376;2023-01-23T02:43:02;6.37;;;4.80;;
9447;SDS011;4762;48.128;11.376;2023-01-23T02:45:06;8.03;;;5.43;;
9447;SDS011;4762;48.128;11.376;2023-01-23T02:47:09;4.83;;;3.33;;
9447;SDS011;4762;48.128;11.376;2023-01-23T02:49:11;18.10;;;5.83;;
9447;SDS011;4762;48.128;11.376;2023-01-23T02:51:13;3.80;;;2.90;;
9447;SDS011;4762;48.128;11.376;2023-01-23T02:53:16;5.07;;;3.93;;
9447;SDS011;4762;48.128;11.376;2023-01-23T02:55:18;4.33;;;3.13;;
9447;SDS011;4762;48.128;11.376;2023-01-23T02:57:20;13.73;;;4.07;;
9447;SDS011;4762;48.128;11.376;2023-01-23T02:59:23;6.47;;;3.23;;
9447;SDS011;4762;48.128;11.376;2023-01-23T03:01:30;6.97;;;3.90;;
9447;SDS011;4762;48.128;11.376;2023-01-23T03:03:33;6.33;;;4.50;;
9447;SDS011;4762;48.128;11.376;2023-01-23T03:05:35;10.10;;;5.13;;
9447;SDS011;4762;48.128;11.376;2023-01-23T03:07:37;7.33;;;4.23;;
9447;SDS011;4762;48.128;11.376;2023-01-23T03:09:39;6.10;;;2.90;;
9447;SDS011;4762;48.128;11.376;2023-01-23T03:11:42;4.93;;;3.80;;
9447;SDS011;4762;48.128;11.376;2023-01-23T03:13:45;9.73;;;4.10;;
9447;SDS011;4762;48.128;11.376;2023-01-23T03:15:49;10.80;;;4.33;;
9447;SDS011;4762;48.128;11.376;2023-01-23T03:17:49;10.60;;;4.33;;
9447;SDS011;4762;48.128;11.376;2023-01-23T03:19:51;6.00;;;3.83;;
9447;SDS011;4762;48.128;11.376;2023-01-23T03:21:53;10.17;;;6.07;;
9447;SDS011;4762;48.128;11.376;2023-01-23T03:23:56;11.77;;;5.30;;
9447;SDS011;4762;48.128;11.376;2023-01-23T03:25:58;4.53;;;4.03;;
9447;SDS011;4762;48.128;11.376;2023-01-23T03:28:00;11.10;;;5.30;;
9447;SDS011;4762;48.128;11.376;2023-01-23T03:30:03;12.93;;;4.97;;
9447;SDS011;4762;48.128;11.376;2023-01-23T03:32:11;7.67;;;3.93;;
9447;SDS011;4762;48.128;11.376;2023-01-23T03:34:13;8.00;;;3.80;;
9447;SDS011;4762;48.128;11.376;2023-01-23T03:36:15;24.87;;;7.13;;
9447;SDS011;4762;48.128;11.376;2023-01-23T03:38:18;9.93;;;4.73;;
9447;SDS011;4762;48.128;11.376;2023-01-23T03:40:23;6.67;;;5.60;;
9447;SDS011;4762;48.128;11.376;2023-01-23T03:42:28;7.60;;;5.67;;
9447;SDS011;4762;48.128;11.376;2023-01-23T03:44:30;8.10;;;4.87;;
9447;SDS011;4762;48.128;11.376;2023-01-23T03:46:33;11.27;;;4.77;;
9447;SDS011;4762;48.128;11.376;2023-01-23T03:48:35;11.60;;;4.47;;
9447;SDS011;4762;48.128;11.376;2023-01-23T03:50:37;18.97;;;6.57;;
9447;SDS011;4762;48.128;11.376;2023-01-23T03:52:39;10.93;;;6.17;;
9447;SDS011;4762;48.128;11.376;2023-01-23T03:54:42;7.93;;;5.83;;
9447;SDS011;4762;48.128;11.376;2023-01-23T03:56:45;13.50;;;6.50;;
9447;SDS011;4762;48.128;11.376;2023-01-23T03:58:47;7.07;;;3.77;;
9447;SDS011;4762;48.128;11.376;2023-01-23T04:00:49;7.43;;;4.53;;
9447;SDS011;4762;48.128;11.376;2023-01-23T04:02:51;7.13;;;3.57;;
9447;SDS011;4762;48.128;11.376;2023-01-23T04:04:54;11.37;;;5.30;;
9447;SDS011;4762;48.128;11.376;2023-01-23T04:06:56;8.73;;;4.47;;
9447;SDS011;4762;48.128;11.376;2023-01-23T04:08:58;6.97;;;4.60;;
9447;SDS011;4762;48.128;11.376;2023-01-23T04:11:02;8.77;;;4.27;;
9447;SDS011;4762;48.128;11.376;2023-01-23T04:13:03;7.90;;;4.50;;
9447;SDS011;4762;48.128;11.376;2023-01-23T04:15:05;9.17;;;4.90;;
9447;SDS011;4762;48.128;11.376;2023-01-23T04:17:09;7.57;;;4.90;;
9447;SDS011;4762;48.128;11.376;2023-01-23T04:19:10;10.47;;;5.30;;
9447;SDS011;4762;48.128;11.376;2023-01-23T04:21:13;11.03;;;3.90;;
9447;SDS011;4762;48.128;11.376;2023-01-23T04:23:15;18.40;;;5.50;;
9447;SDS011;4762;48.128;11.376;2023-01-23T04:25:17;7.43;;;5.13;;
9447;SDS011;4762;48.128;11.376;2023-01-23T04:27:20;9.60;;;5.37;;
9447;SDS011;4762;48.128;11.376;2023-01-23T04:29:22;9.23;;;4.43;;
9447;SDS011;4762;48.128;11.376;2023-01-23T04:31:24;8.03;;;5.30;;
9447;SDS011;4762;48.128;11.376;2023-01-23T04:33:26;6.27;;;5.40;;
9447;SDS011;4762;48.128;11.376;2023-01-23T04:35:29;6.33;;;5.03;;
9447;SDS011;4762;48.128;11.376;2023-01-23T04:37:31;8.60;;;4.87;;
9447;SDS011;4762;48.128;11.376;2023-01-23T04:39:33;7.40;;;5.17;;
9447;SDS011;4762;48.128;11.376;2023-01-23T04:41:35;4.83;;;3.63;;
9447;SDS011;4762;48.128;11.376;2023-01-23T04:43:38;10.80;;;5.13;;
9447;SDS011;4762;48.128;11.376;2023-01-23T04:45:40;8.43;;;5.00;;
9447;SDS011;4762;48.128;11.376;2023-01-23T04:47:42;12.57;;;6.37;;
9447;SDS011;4762;48.128;11.376;2023-01-23T04:49:45;8.80;;;4.40;;
9447;SDS011;4762;48.128;11.376;2023-01-23T04:51:47;5.87;;;4.30;;
9447;SDS011;4762;48.128;11.376;2023-01-23T04:53:49;13.40;;;5.33;;
9447;SDS011;4762;48.128;11.376;2023-01-23T04:55:51;5.83;;;4.60;;
9447;SDS011;4762;48.128;11.376;2023-01-23T04:57:54;9.83;;;5.93;;
9447;SDS011;4762;48.128;11.376;2023-01-23T04:59:56;6.10;;;4.03;;
9447;SDS011;4762;48.128;11.376;2023-01-23T05:01:58;11.03;;;6.23;;
9447;SDS011;4762;48.128;11.376;2023-01-23T05:04:00;8.37;;;4.67;;
9447;SDS011;4762;48.128;11.376;2023-01-23T05:06:03;10.83;;;5.03;;
9447;SDS011;4762;48.128;11.376;2023-01-23T05:08:05;6.97;;;4.93;;
9447;SDS011;4762;48.128;11.376;2023-01-23T05:10:09;7.47;;;5.23;;
9447;SDS011;4762;48.128;11.376;2023-01-23T05:12:11;11.33;;;4.60;;
9447;SDS011;4762;48.128;11.376;2023-01-23T05:14:13;10.00;;;5.80;;
9447;SDS011;4762;48.128;11.376;2023-01-23T05:18:38;5.50;;;4.50;;
9447;SDS011;4762;48.128;11.376;2023-01-23T05:20:40;6.73;;;4.27;;
9447;SDS011;4762;48.128;11.376;2023-01-23T05:22:42;5.33;;;4.07;;
9447;SDS011;4762;48.128;11.376;2023-01-23T05:24:44;6.77;;;4.87;;
9447;SDS011;4762;48.128;11.376;2023-01-23T05:26:47;6.60;;;5.57;;
9447;SDS011;4762;48.128;11.376;2023-01-23T05:28:49;9.03;;;4.70;;
9447;SDS011;4762;48.128;11.376;2023-01-23T05:30:51;17.33;;;4.17;;
9447;SDS011;4762;48.128;11.376;2023-01-23T05:32:54;11.13;;;5.50;;
9447;SDS011;4762;48.128;11.376;2023-01-23T05:34:56;6.43;;;4.47;;
9447;SDS011;4762;48.128;11.376;2023-01-23T05:36:58;6.47;;;4.23;;
9447;SDS011;4762;48.128;11.376;2023-01-23T05:39:00;7.40;;;4.87;;
9447;SDS011;4762;48.128;11.376;2023-01-23T05:41:03;5.20;;;4.23;;
9447;SDS011;4762;48.128;11.376;2023-01-23T05:43:05;6.27;;;3.83;;
9447;SDS011;4762;48.128;11.376;2023-01-23T05:45:07;12.67;;;5.53;;
9447;SDS011;4762;48.128;11.376;2023-01-23T05:47:10;5.47;;;4.10;;
9447;SDS011;4762;48.128;11.376;2023-01-23T05:49:12;16.77;;;5.77;;
9447;SDS011;4762;48.128;11.376;2023-01-23T05:51:15;6.10;;;4.60;;
9447;SDS011;4762;48.128;11.376;2023-01-23T05:53:17;8.70;;;6.07;;
9447;SDS011;4762;48.128;11.376;2023-01-23T05:55:19;10.00;;;5.77;;
9447;SDS011;4762;48.128;11.376;2023-01-23T05:57:21;12.77;;;5.17;;
9447;SDS011;4762;48.128;11.376;2023-01-23T05:59:24;8.60;;;5.27;;
9447;SDS011;4762;48.128;11.376;2023-01-23T06:01:26;12.63;;;5.33;;
9447;SDS011;4762;48.128;11.376;2023-01-23T06:03:28;10.53;;;5.80;;
9447;SDS011;4762;48.128;11.376;2023-01-23T06:05:32;10.17;;;5.47;;
9447;SDS011;4762;48.128;11.376;2023-01-23T06:07:33;7.50;;;4.67;;
9447;SDS011;4762;48.128;11.376;2023-01-23T06:09:35;6.03;;;4.70;;
9447;SDS011;4762;48.128;11.376;2023-01-23T06:11:37;6.60;;;4.97;;
9447;SDS011;4762;48.128;11.376;2023-01-23T06:13:40;15.57;;;4.93;;
9447;SDS011;4762;48.128;11.376;2023-01-23T06:15:42;6.53;;;5.30;;
9447;SDS011;4762;48.128;11.376;2023-01-23T06:17:44;7.13;;;5.10;;
9447;SDS011;4762;48.128;11.376;2023-01-23T06:19:47;14.00;;;4.87;;
9447;SDS011;4762;48.128;11.376;2023-01-23T06:21:49;8.83;;;5.27;;
9447;SDS011;4762;48.128;11.376;2023-01-23T06:23:51;5.70;;;4.60;;
9447;SDS011;4762;48.128;11.376;2023-01-23T06:25:53;8.33;;;4.87;;
9447;SDS011;4762;48.128;11.376;2023-01-23T06:27:56;8.83;;;6.80;;
9447;SDS011;4762;48.128;11.376;2023-01-23T06:29:58;7.13;;;4.23;;
9447;SDS011;4762;48.128;11.376;2023-01-23T06:32:01;6.70;;;4.27;;
9447;SDS011;4762;48.128;11.376;2023-01-23T06:34:04;9.17;;;5.50;;
9447;SDS011;4762;48.128;11.376;2023-01-23T06:36:06;5.47;;;4.03;;
9447;SDS011;4762;48.128;11.376;2023-01-23T06:38:09;7.67;;;5.57;;
9447;SDS011;4762;48.128;11.376;2023-01-23T06:40:11;18.70;;;7.77;;
9447;SDS011;4762;48.128;11.376;2023-01-23T06:42:14;6.43;;;5.60;;
9447;SDS011;4762;48.128;11.376;2023-01-23T06:44:17;8.60;;;5.67;;
9447;SDS011;4762;48.128;11.376;2023-01-23T06:46:19;13.00;;;5.13;;
9447;SDS011;4762;48.128;11.376;2023-01-23T06:48:22;14.30;;;6.43;;
9447;SDS011;4762;48.128;11.376;2023-01-23T06:50:24;13.50;;;6.77;;
9447;SDS011;4762;48.128;11.376;2023-01-23T06:52:27;8.93;;;5.90;;
9447;SDS011;4762;48.128;11.376;2023-01-23T06:54:29;15.00;;;4.77;;
9447;SDS011;4762;48.128;11.376;2023-01-23T06:56:31;11.13;;;4.97;;
9447;SDS011;4762;48.128;11.376;2023-01-23T06:58:34;10.43;;;5.73;;
9447;SDS011;4762;48.128;11.376;2023-01-23T07:00:36;6.97;;;4.60;;
9447;SDS011;4762;48.128;11.376;2023-01-23T07:02:39;6.63;;;4.83;;
9447;SDS011;4762;48.128;11.376;2023-01-23T07:04:42;10.27;;;4.77;;
9447;SDS011;4762;48.128;11.376;2023-01-23T07:06:44;5.23;;;4.07;;
9447;SDS011;4762;48.128;11.376;2023-01-23T07:08:47;11.37;;;6.27;;
9447;SDS011;4762;48.128;11.376;2023-01-23T07:10:49;10.43;;;5.13;;
9447;SDS011;4762;48.128;11.376;2023-01-23T07:12:51;9.03;;;5.13;;
9447;SDS011;4762;48.128;11.376;2023-01-23T07:14:53;7.57;;;5.87;;
9447;SDS011;4762;48.128;11.376;2023-01-23T07:16:56;13.50;;;5.67;;
9447;SDS011;4762;48.128;11.376;2023-01-23T07:18:59;8.10;;;5.97;;
9447;SDS011;4762;48.128;11.376;2023-01-23T07:21:03;12.13;;;6.17;;
9447;SDS011;4762;48.128;11.376;2023-01-23T07:23:05;11.27;;;6.67;;
9447;SDS011;4762;48.128;11.376;2023-01-23T07:25:08;8.93;;;5.03;;
9447;SDS011;4762;48.128;11.376;2023-01-23T07:27:14;10.67;;;6.37;;
9447;SDS011;4762;48.128;11.376;2023-01-23T07:29:24;21.07;;;6.90;;
9447;SDS011;4762;48.128;11.376;2023-01-23T07:31:35;18.33;;;7.77;;
9447;SDS011;4762;48.128;11.376;2023-01-23T07:33:46;14.93;;;8.13;;
9447;SDS011;4762;48.128;11.376;2023-01-23T07:35:50;26.73;;;6.87;;
9447;SDS011;4762;48.128;11.376;2023-01-23T07:37:52;19.07;;;8.20;;
9447;SDS011;4762;48.128;11.376;2023-01-23T07:39:54;39.80;;;8.67;;
9447;SDS011;4762;48.128;11.376;2023-01-23T07:41:57;15.47;;;9.67;;
9447;SDS011;4762;48.128;11.376;2023-01-23T07:43:59;23.83;;;7.90;;
9447;SDS011;4762;48.128;11.376;2023-01-23T07:46:01;10.50;;;7.60;;
9447;SDS011;4762;48.128;11.376;2023-01-23T07:48:04;18.77;;;9.30;;
9447;SDS011;4762;48.128;11.376;2023-01-23T07:50:07;11.90;;;7.20;;
9447;SDS011;4762;48.128;11.376;2023-01-23T07:52:10;15.70;;;7.73;;
9447;SDS011;4762;48.128;11.376;2023-01-23T07:54:13;10.10;;;7.17;;
9447;SDS011;4762;48.128;11.376;2023-01-23T07:56:15;13.00;;;7.77;;
9447;SDS011;4762;48.128;11.376;2023-01-23T07:58:17;20.73;;;10.43;;
9447;SDS011;4762;48.128;11.376;2023-01-23T08:00:20;17.13;;;9.23;;
9447;SDS011;4762;48.128;11.376;2023-01-23T08:14:32;14.30;;;7.90;;
9447;SDS011;4762;48.128;11.376;2023-01-23T08:16:35;17.57;;;8.60;;
9447;SDS011;4762;48.128;11.376;2023-01-23T08:18:37;15.43;;;8.10;;
9447;SDS011;4762;48.128;11.376;2023-01-23T08:20:39;11.07;;;8.13;;
9447;SDS011;4762;48.128;11.376;2023-01-23T08:22:42;18.90;;;8.20;;
9447;SDS011;4762;48.128;11.376;2023-01-23T08:24:44;20.10;;;9.37;;
9447;SDS011;4762;48.128;11.376;2023-01-23T08:26:46;10.13;;;7.43;;
9447;SDS011;4762;48.128;11.376;2023-01-23T08:28:48;14.17;;;8.90;;
9447;SDS011;4762;48.128;11.376;2023-01-23T08:30:51;13.23;;;5.97;;
9447;SDS011;4762;48.128;11.376;2023-01-23T08:32:53;10.53;;;6.53;;
9447;SDS011;4762;48.128;11.376;2023-01-23T08:34:55;18.47;;;7.70;;
9447;SDS011;4762;48.128;11.376;2023-01-23T08:36:58;13.40;;;6.87;;
9447;SDS011;4762;48.128;11.376;2023-01-23T08:39:00;11.93;;;6.93;;
9447;SDS011;4762;48.128;11.376;2023-01-23T08:41:02;13.47;;;7.23;;
9447;SDS011;4762;48.128;11.376;2023-01-23T08:43:05;18.67;;;6.70;;
9447;SDS011;4762;48.128;11.376;2023-01-23T08:45:07;13.10;;;7.67;;
9447;SDS011;4762;48.128;11.376;2023-01-23T08:47:10;8.87;;;6.47;;
9447;SDS011;4762;48.128;11.376;2023-01-23T08:49:12;11.27;;;7.77;;
9447;SDS011;4762;48.128;11.376;2023-01-23T08:51:16;8.13;;;5.27;;
9447;SDS011;4762;48.128;11.376;2023-01-23T08:53:18;9.00;;;6.00;;
9447;SDS011;4762;48.128;11.376;2023-01-23T08:55:20;10.97;;;6.93;;
9447;SDS011;4762;48.128;11.376;2023-01-23T08:57:22;23.33;;;6.67;;
9447;SDS011;4762;48.128;11.376;2023-01-23T08:59:25;7.47;;;5.27;;
9447;SDS011;4762;48.128;11.376;2023-01-23T09:01:27;9.50;;;5.67;;
9447;SDS011;4762;48.128;11.376;2023-01-23T09:03:29;9.30;;;6.40;;
9447;SDS011;4762;48.128;11.376;2023-01-23T09:05:32;10.00;;;5.53;;
9447;SDS011;4762;48.128;11.376;2023-01-23T09:07:34;10.40;;;7.17;;
9447;SDS011;4762;48.128;11.376;2023-01-23T09:09:36;11.93;;;7.43;;
9447;SDS011;4762;48.128;11.376;2023-01-23T09:11:38;17.27;;;8.43;;
9447;SDS011;4762;48.128;11.376;2023-01-23T09:13:41;25.57;;;7.17;;
9447;SDS011;4762;48.128;11.376;2023-01-23T09:15:47;14.20;;;5.10;;
9447;SDS011;4762;48.128;11.376;2023-01-23T09:17:49;13.07;;;5.53;;
9447;SDS011;4762;48.128;11.376;2023-01-23T09:19:52;12.77;;;5.73;;
9447;SDS011;4762;48.128;11.376;2023-01-23T09:21:54;27.50;;;7.13;;
9447;SDS011;4762;48.128;11.376;2023-01-23T09:23:56;11.13;;;7.40;;
9447;SDS011;4762;48.128;11.376;2023-01-23T09:26:03;7.40;;;5.93;;
9447;SDS011;4762;48.128;11.376;2023-01-23T09:28:05;13.13;;;5.27;;
9447;SDS011;4762;48.128;11.376;2023-01-23T09:30:07;9.10;;;5.77;;
9447;SDS011;4762;48.128;11.376;2023-01-23T09:32:10;7.50;;;5.47;;
9447;SDS011;4762;48.128;11.376;2023-01-23T09:34:12;18.37;;;6.50;;
9447;SDS011;4762;48.128;11.376;2023-01-23T09:36:15;16.20;;;8.70;;
9447;SDS011;4762;48.128;11.376;2023-01-23T09:38:17;7.50;;;6.17;;
9447;SDS011;4762;48.128;11.376;2023-01-23T09:40:20;7.70;;;5.97;;
9447;SDS011;4762;48.128;11.376;2023-01-23T09:42:27;9.13;;;5.80;;
9447;SDS011;4762;48.128;11.376;2023-01-23T09:44:31;10.10;;;6.90;;
9447;SDS011;4762;48.128;11.376;2023-01-23T09:46:33;7.93;;;4.93;;
9447;SDS011;4762;48.128;11.376;2023-01-23T09:48:41;6.97;;;5.87;;
9447;SDS011;4762;48.128;11.376;2023-01-23T09:51:01;8.77;;;5.10;;
9447;SDS011;4762;48.128;11.376;2023-01-23T09:53:07;14.93;;;7.23;;
9447;SDS011;4762;48.128;11.376;2023-01-23T09:55:12;17.03;;;7.17;;
9447;SDS011;4762;48.128;11.376;2023-01-23T09:57:18;8.30;;;6.07;;
9447;SDS011;4762;48.128;11.376;2023-01-23T09:59:38;9.00;;;4.53;;
9447;SDS011;4762;48.128;11.376;2023-01-23T10:01:40;12.03;;;6.10;;
9447;SDS011;4762;48.128;11.376;2023-01-23T10:03:42;8.03;;;5.47;;
9447;SDS011;4762;48.128;11.376;2023-01-23T10:08:17;18.10;;;6.60;;
9447;SDS011;4762;48.128;11.376;2023-01-23T10:10:33;15.17;;;6.97;;
9447;SDS011;4762;48.128;11.376;2023-01-23T10:17:20;10.40;;;4.77;;
9447;SDS011;4762;48.128;11.376;2023-01-23T10:19:43;14.67;;;7.23;;
9447;SDS011;4762;48.128;11.376;2023-01-23T10:21:57;9.20;;;5.40;;
9447;SDS011;4762;48.128;11.376;2023-01-23T10:24:07;14.60;;;6.63;;
9447;SDS011;4762;48.128;11.376;2023-01-23T10:26:15;5.57;;;4.43;;
9447;SDS011;4762;48.128;11.376;2023-01-23T10:28:35;11.37;;;7.33;;
9447;SDS011;4762;48.128;11.376;2023-01-23T10:30:36;9.80;;;6.50;;
9447;SDS011;4762;48.128;11.376;2023-01-23T10:32:45;12.33;;;8.17;;
9447;SDS011;4762;48.128;11.376;2023-01-23T10:36:59;10.40;;;6.07;;
9447;SDS011;4762;48.128;11.376;2023-01-23T10:39:05;13.67;;;6.70;;
9447;SDS011;4762;48.128;11.376;2023-01-23T10:41:11;10.13;;;5.30;;
9447;SDS011;4762;48.128;11.376;2023-01-23T10:43:14;8.47;;;6.00;;
9447;SDS011;4762;48.128;11.376;2023-01-23T10:45:16;12.40;;;6.50;;
9447;SDS011;4762;48.128;11.376;2023-01-23T10:47:23;9.53;;;5.87;;
9447;SDS011;4762;48.128;11.376;2023-01-23T10:49:36;11.80;;;5.67;;
9447;SDS011;4762;48.128;11.376;2023-01-23T10:51:46;17.00;;;8.40;;
9447;SDS011;4762;48.128;11.376;2023-01-23T10:55:58;25.10;;;8.27;;
9447;SDS011;4762;48.128;11.376;2023-01-23T10:58:00;10.50;;;7.27;;
9447;SDS011;4762;48.128;11.376;2023-01-23T11:00:05;8.80;;;6.60;;
9447;SDS011;4762;48.128;11.376;2023-01-23T11:02:20;11.80;;;5.87;;
9447;SDS011;4762;48.128;11.376;2023-01-23T11:04:30;13.30;;;6.80;;
9447;SDS011;4762;48.128;11.376;2023-01-23T11:06:32;12.37;;;5.70;;
9447;SDS011;4762;48.128;11.376;2023-01-23T11:08:35;15.27;;;7.40;;
9447;SDS011;4762;48.128;11.376;2023-01-23T11:10:37;13.47;;;6.60;;
9447;SDS011;4762;48.128;11.376;2023-01-23T11:12:47;14.83;;;7.80;;
9447;SDS011;4762;48.128;11.376;2023-01-23T11:14:49;11.30;;;6.43;;
9447;SDS011;4762;48.128;11.376;2023-01-23T11:16:59;11.10;;;6.97;;
9447;SDS011;4762;48.128;11.376;2023-01-23T11:19:03;12.70;;;6.67;;
9447;SDS011;4762;48.128;11.376;2023-01-23T11:21:04;9.07;;;5.40;;
9447;SDS011;4762;48.128;11.376;2023-01-23T11:23:14;13.13;;;6.93;;
9447;SDS011;4762;48.128;11.376;2023-01-23T11:27:27;18.47;;;8.00;;
9447;SDS011;4762;48.128;11.376;2023-01-23T11:29:30;12.63;;;8.03;;
9447;SDS011;4762;48.128;11.376;2023-01-23T11:31:31;13.63;;;8.17;;
9447;SDS011;4762;48.128;11.376;2023-01-23T11:33:38;12.73;;;6.87;;
9447;SDS011;4762;48.128;11.376;2023-01-23T11:35:58;10.20;;;6.07;;
9447;SDS011;4762;48.128;11.376;2023-01-23T11:38:18;16.20;;;7.33;;
9447;SDS011;4762;48.128;11.376;2023-01-23T11:40:20;16.40;;;7.70;;
9447;SDS011;4762;48.128;11.376;2023-01-23T11:42:23;17.57;;;8.10;;
9447;SDS011;4762;48.128;11.376;2023-01-23T11:44:25;11.27;;;6.30;;
9447;SDS011;4762;48.128;11.376;2023-01-23T11:46:33;10.03;;;5.63;;
9447;SDS011;4762;48.128;11.376;2023-01-23T11:48:42;29.90;;;8.30;;
9447;SDS011;4762;48.128;11.376;2023-01-23T11:50:45;9.57;;;5.90;;
9447;SDS011;4762;48.128;11.376;2023-01-23T11:52:47;45.70;;;7.10;;
9447;SDS011;4762;48.128;11.376;2023-01-23T11:54:56;13.30;;;7.80;;
9447;SDS011;4762;48.128;11.376;2023-01-23T11:57:00;12.10;;;6.70;;
9447;SDS011;4762;48.128;11.376;2023-01-23T11:59:07;16.90;;;8.57;;
9447;SDS011;4762;48.128;11.376;2023-01-23T12:01:28;17.53;;;7.93;;
9447;SDS011;4762;48.128;11.376;2023-01-23T12:03:35;12.13;;;6.57;;
9447;SDS011;4762;48.128;11.376;2023-01-23T12:05:44;10.07;;;5.23;;
9447;SDS011;4762;48.128;11.376;2023-01-23T12:07:56;17.60;;;7.63;;
9447;SDS011;4762;48.128;11.376;2023-01-23T12:10:16;14.77;;;8.17;;
9447;SDS011;4762;48.128;11.376;2023-01-23T12:12:26;14.73;;;8.33;;
9447;SDS011;4762;48.128;11.376;2023-01-23T12:21:44;12.33;;;7.53;;
9447;SDS011;4762;48.128;11.376;2023-01-23T12:24:01;6.93;;;5.47;;
9447;SDS011;4762;48.128;11.376;2023-01-23T12:26:09;18.53;;;8.13;;
9447;SDS011;4762;48.128;11.376;2023-01-23T12:28:12;12.17;;;7.17;;
9447;SDS011;4762;48.128;11.376;2023-01-23T12:32:39;16.63;;;7.63;;
9447;SDS011;4762;48.128;11.376;2023-01-23T12:34:49;14.73;;;7.30;;
9447;SDS011;4762;48.128;11.376;2023-01-23T12:36:54;7.90;;;5.47;;
9447;SDS011;4762;48.128;11.376;2023-01-23T12:41:21;10.90;;;9.70;;
9447;SDS011;4762;48.128;11.376;2023-01-23T12:43:32;14.93;;;8.40;;
9447;SDS011;4762;48.128;11.376;2023-01-23T12:45:32;12.63;;;9.27;;
9447;SDS011;4762;48.128;11.376;2023-01-23T12:47:38;15.43;;;10.43;;
9447;SDS011;4762;48.128;11.376;2023-01-23T12:49:55;15.30;;;8.30;;
9447;SDS011;4762;48.128;11.376;2023-01-23T12:52:06;25.10;;;11.50;;
9447;SDS011;4762;48.128;11.376;2023-01-23T12:54:24;13.23;;;8.33;;
9447;SDS011;4762;48.128;11.376;2023-01-23T12:56:30;16.33;;;8.13;;
9447;SDS011;4762;48.128;11.376;2023-01-23T12:58:35;12.40;;;7.63;;
9447;SDS011;4762;48.128;11.376;2023-01-23T13:05:16;8.73;;;5.30;;
9447;SDS011;4762;48.128;11.376;2023-01-23T13:07:36;7.00;;;5.97;;
9447;SDS011;4762;48.128;11.376;2023-01-23T13:09:43;11.17;;;6.60;;
9447;SDS011;4762;48.128;11.376;2023-01-23T13:11:49;15.23;;;8.40;;
9447;SDS011;4762;48.128;11.376;2023-01-23T13:13:48;16.13;;;7.07;;
9447;SDS011;4762;48.128;11.376;2023-01-23T13:16:01;9.90;;;6.83;;
9447;SDS011;4762;48.128;11.376;2023-01-23T13:18:04;8.87;;;5.90;;
9447;SDS011;4762;48.128;11.376;2023-01-23T13:20:52;14.10;;;7.73;;
9447;SDS011;4762;48.128;11.376;2023-01-23T13:22:31;9.30;;;6.27;;